Time;durP1;ratioP1;P1;durP2;ratioP2;P2;SDS_P1;SDS_P2;PMS_P1;PMS_P2;Temp;Humidity;BMP_temperature;BMP_pressure;BME280_temperature;BME280_humidity;BME280_pressure;Samples;Min_cycle;Max_cycle;Signal;HPM_P1;HPM_P2
2024/01/22 00:02:00;;;;;;;;;;;;;;;6.84;100.00;100563.16;5106093;28;20248;-70
2024/01/22 00:04:25;;;;;;;;;;;;;;;6.88;100.00;100563.91;5109011;28;19969;-70
2024/01/22 00:06:52;;;;;;;;;;;;;;;6.92;100.00;100563.75;5109311;28;19920;-70
2024/01/22 00:09:17;;;;;;;;;;;;;;;6.90;100.00;100552.53;5098590;28;19941;-71
2024/01/22 00:11:42;;;;;;;;;;;;;;;6.97;100.00;100540.19;5115228;27;19935;-71
2024/01/22 00:14:08;;;;;;;;;;;;;;;6.94;100.00;100542.88;5115752;28;19912;-71
2024/01/22 00:16:37;;;;;;;;;;;;;;;6.98;100.00;100517.63;5115497;28;19927;-71
2024/01/22 00:19:02;;;;;;;;;;;;;;;6.95;100.00;100534.19;5115599;28;20299;-71
2024/01/22 00:21:27;;;;;;;;;;;;;;;7.01;100.00;100557.44;5115789;28;19919;-71
2024/01/22 00:23:52;;;;;;;;;;;;;;;7.04;100.00;100548.66;5115496;28;19915;-71
2024/01/22 00:26:18;;;;;;;;;;;;;;;7.02;100.00;100529.63;5115625;28;20027;-71
2024/01/22 00:28:43;;;;;;;;;;;;;;;7.03;100.00;100521.78;5116186;28;19978;-71
2024/01/22 00:31:08;;;;;;;;;;;;;;;7.05;100.00;100509.56;5116235;28;19915;-71
2024/01/22 00:33:34;;;;;;;;;;;;;;;7.05;100.00;100493.94;5116178;28;20416;-71
2024/01/22 00:35:59;;;;;;;;;;;;;;;7.08;100.00;100514.69;5115591;28;19915;-71
2024/01/22 00:38:24;;;;;;;;;;;;;;;7.13;100.00;100500.66;5097984;28;20220;-71
2024/01/22 00:40:49;;;;;;;;;;;;;;;7.14;100.00;100529.25;5116253;28;20221;-71
2024/01/22 00:43:15;;;;;;;;;;;;;;;7.19;100.00;100493.50;5115716;28;20185;-71
2024/01/22 00:45:40;;;;;;;;;;;;;;;7.19;100.00;100505.69;5116516;28;19920;-71
2024/01/22 00:48:06;;;;;;;;;;;;;;;7.20;100.00;100504.75;5115702;28;19908;-71
2024/01/22 00:50:31;;;;;;;;;;;;;;;7.21;100.00;100496.91;5116308;28;19986;-71
2024/01/22 00:52:56;;;;;;;;;;;;;;;7.22;100.00;100497.75;5115498;28;19915;-71
2024/01/22 00:55:22;;;;;;;;;;;;;;;7.26;100.00;100504.59;5116203;28;19920;-71
2024/01/22 00:57:47;;;;;;;;;;;;;;;7.32;100.00;100504.38;5115623;28;19915;-71
2024/01/22 01:00:12;;;;;;;;;;;;;;;7.29;100.00;100507.06;5115907;28;19972;-71
2024/01/22 01:02:37;;;;;;;;;;;;;;;7.32;100.00;100496.56;5116178;28;20017;-71
2024/01/22 01:05:03;;;;;;;;;;;;;;;7.33;100.00;100477.44;5115298;28;19924;-71
2024/01/22 01:07:28;;;;;;;;;;;;;;;7.29;100.00;100468.00;5115581;28;19961;-71
2024/01/22 01:09:53;;;;;;;;;;;;;;;7.35;100.00;100462.59;5115592;28;19943;-71
2024/01/22 01:12:19;;;;;;;;;;;;;;;7.35;100.00;100452.19;5115572;28;19923;-71
2024/01/22 01:14:44;;;;;;;;;;;;;;;7.35;100.00;100440.88;5116041;28;19915;-71
2024/01/22 01:17:09;;;;;;;;;;;;;;;7.36;100.00;100434.78;5115033;28;19916;-71
2024/01/22 01:19:35;;;;;;;;;;;;;;;7.36;100.00;100424.38;5115647;28;19919;-71
2024/01/22 01:22:01;;;;;;;;;;;;;;;7.37;100.00;100446.91;5114732;28;19916;-71
2024/01/22 01:24:26;;;;;;;;;;;;;;;7.42;100.00;100409.38;5115356;28;19920;-71
2024/01/22 01:26:51;;;;;;;;;;;;;;;7.48;100.00;100416.16;5114870;28;19915;-71
2024/01/22 01:29:16;;;;;;;;;;;;;;;7.49;100.00;100397.84;5115240;28;20183;-71
2024/01/22 01:31:42;;;;;;;;;;;;;;;7.48;100.00;100400.50;5115561;28;19916;-71
2024/01/22 01:34:07;;;;;;;;;;;;;;;7.53;100.00;100380.34;5114758;28;19926;-71
2024/01/22 01:36:32;;;;;;;;;;;;;;;7.59;100.00;100382.72;5115345;28;19920;-71
2024/01/22 01:38:58;;;;;;;;;;;;;;;7.63;100.00;100381.72;5114178;28;19959;-71
2024/01/22 01:41:23;;;;;;;;;;;;;;;7.67;100.00;100383.28;5115116;28;19916;-71
2024/01/22 01:43:48;;;;;;;;;;;;;;;7.69;100.00;100365.00;5114108;28;19986;-71
2024/01/22 01:46:13;;;;;;;;;;;;;;;7.73;100.00;100360.53;5114560;28;20247;-71
2024/01/22 01:48:39;;;;;;;;;;;;;;;7.75;100.00;100346.53;5115259;28;19931;-71
2024/01/22 01:51:04;;;;;;;;;;;;;;;7.77;100.00;100343.88;5114934;28;19922;-71
2024/01/22 01:53:30;;;;;;;;;;;;;;;7.78;100.00;100348.19;5115197;28;19990;-71
2024/01/22 01:55:57;;;;;;;;;;;;;;;7.77;100.00;100323.88;5114904;28;19915;-71
2024/01/22 01:58:22;;;;;;;;;;;;;;;7.80;100.00;100321.13;5108883;28;19947;-71
2024/01/22 02:00:49;;;;;;;;;;;;;;;7.80;100.00;100328.94;5114364;28;19914;-71
2024/01/22 02:03:14;;;;;;;;;;;;;;;7.81;100.00;100314.19;5107758;28;19998;-71
2024/01/22 02:05:39;;;;;;;;;;;;;;;7.83;100.00;100300.16;5108095;28;19920;-71
2024/01/22 02:08:05;;;;;;;;;;;;;;;7.85;100.00;100294.91;5112634;28;19911;-71
2024/01/22 02:10:30;;;;;;;;;;;;;;;7.86;100.00;100294.00;5115394;28;19916;-71
2024/01/22 02:12:55;;;;;;;;;;;;;;;7.91;100.00;100299.88;5111511;28;19919;-71
2024/01/22 02:15:20;;;;;;;;;;;;;;;7.88;100.00;100282.59;5110385;28;20002;-71
2024/01/22 02:17:45;;;;;;;;;;;;;;;7.89;100.00;100275.63;5113505;28;19924;-71
2024/01/22 02:20:11;;;;;;;;;;;;;;;7.87;100.00;100273.06;5114215;28;19919;-71
2024/01/22 02:22:36;;;;;;;;;;;;;;;7.87;100.00;100262.63;5114741;28;19916;-71
2024/01/22 02:25:01;;;;;;;;;;;;;;;7.88;100.00;100248.72;5106988;28;19920;-71
2024/01/22 02:27:27;;;;;;;;;;;;;;;7.90;100.00;100260.84;5110298;28;20166;-71
2024/01/22 02:29:52;;;;;;;;;;;;;;;7.87;100.00;100260.03;5113783;28;19915;-71
2024/01/22 02:32:17;;;;;;;;;;;;;;;7.90;100.00;100251.25;5114256;28;19916;-71
2024/01/22 02:34:42;;;;;;;;;;;;;;;7.92;100.00;100238.16;5114252;28;19926;-71
2024/01/22 02:37:07;;;;;;;;;;;;;;;7.91;100.00;100236.47;5112260;28;20016;-71
2024/01/22 02:39:33;;;;;;;;;;;;;;;7.90;100.00;100224.34;5113565;28;19964;-71
2024/01/22 02:41:58;;;;;;;;;;;;;;;7.97;100.00;100255.31;5113967;28;19920;-71
2024/01/22 02:44:24;;;;;;;;;;;;;;;7.99;100.00;100226.59;5113984;28;20137;-71
2024/01/22 02:46:49;;;;;;;;;;;;;;;8.00;100.00;100236.09;5113556;28;20280;-71
2024/01/22 02:49:15;;;;;;;;;;;;;;;8.04;100.00;100227.22;5113598;28;19961;-71
2024/01/22 02:51:43;;;;;;;;;;;;;;;8.04;100.00;100211.59;5114648;28;20142;-71
2024/01/22 02:54:08;;;;;;;;;;;;;;;8.07;100.00;100212.31;5110341;28;19927;-71
2024/01/22 02:56:33;;;;;;;;;;;;;;;8.06;100.00;100204.56;5114031;28;19916;-71
2024/01/22 02:58:59;;;;;;;;;;;;;;;8.10;100.00;100207.91;5113382;28;20848;-71
2024/01/22 03:01:24;;;;;;;;;;;;;;;8.13;100.00;100205.16;5113790;28;20184;-71
2024/01/22 03:03:49;;;;;;;;;;;;;;;8.17;100.00;100201.53;5112668;28;19928;-71
2024/01/22 03:06:14;;;;;;;;;;;;;;;8.20;100.00;100183.97;5113712;28;19912;-71
2024/01/22 03:08:40;;;;;;;;;;;;;;;8.15;100.00;100192.91;5113590;28;19911;-71
2024/01/22 03:11:06;;;;;;;;;;;;;;;8.15;100.00;100198.97;5113759;28;19920;-71
2024/01/22 03:13:31;;;;;;;;;;;;;;;8.16;100.00;100187.63;5113183;28;19987;-71
2024/01/22 03:15:56;;;;;;;;;;;;;;;8.20;100.00;100181.34;5113284;28;19919;-71
2024/01/22 03:18:22;;;;;;;;;;;;;;;8.24;100.00;100185.56;5114005;28;20108;-71
2024/01/22 03:20:47;;;;;;;;;;;;;;;8.28;100.00;100186.28;5112947;28;19911;-71
2024/01/22 03:23:12;;;;;;;;;;;;;;;8.25;100.00;100162.91;5112926;28;19919;-71
2024/01/22 03:25:37;;;;;;;;;;;;;;;8.27;100.00;100171.53;5114345;28;19946;-71
2024/01/22 03:28:03;;;;;;;;;;;;;;;8.30;100.00;100194.88;5110139;28;19912;-71
2024/01/22 03:30:28;;;;;;;;;;;;;;;8.33;100.00;100175.63;5099949;28;19920;-71
2024/01/22 03:32:53;;;;;;;;;;;;;;;8.33;100.00;100188.69;5112115;28;20209;-71
2024/01/22 03:35:20;;;;;;;;;;;;;;;8.31;100.00;100170.47;5113754;28;20226;-71
2024/01/22 03:37:46;;;;;;;;;;;;;;;8.36;100.00;100171.13;5113291;28;20161;-71
2024/01/22 03:40:11;;;;;;;;;;;;;;;8.36;100.00;100172.91;5113033;28;19919;-71
2024/01/22 03:42:36;;;;;;;;;;;;;;;8.39;100.00;100167.56;5114274;28;19927;-73
2024/01/22 03:45:02;;;;;;;;;;;;;;;8.43;100.00;100156.13;5115655;28;20191;-74
2024/01/22 03:47:27;;;;;;;;;;;;;;;8.42;100.00;100168.31;5117801;28;19941;-74
2024/01/22 03:49:52;;;;;;;;;;;;;;;8.42;100.00;100160.50;5117239;28;19979;-74
2024/01/22 03:52:17;;;;;;;;;;;;;;;8.43;100.00;100179.59;5117345;28;20125;-74
2024/01/22 03:54:43;;;;;;;;;;;;;;;8.42;100.00;100155.28;5117293;28;19912;-74
2024/01/22 03:57:08;;;;;;;;;;;;;;;8.50;100.00;100149.72;5115731;28;20023;-73
2024/01/22 03:59:34;;;;;;;;;;;;;;;8.48;100.00;100133.28;5116821;28;19912;-74
2024/01/22 04:01:59;;;;;;;;;;;;;;;8.52;100.00;100160.09;5115198;28;19927;-73
2024/01/22 04:04:24;;;;;;;;;;;;;;;8.54;100.00;100138.22;5115680;28;19930;-73
2024/01/22 04:06:49;;;;;;;;;;;;;;;8.53;100.00;100131.34;5115350;28;20015;-73
2024/01/22 04:09:14;;;;;;;;;;;;;;;8.56;100.00;100135.56;5116837;28;20127;-73
2024/01/22 04:11:41;;;;;;;;;;;;;;;8.54;100.00;100127.78;5116464;28;20135;-73
2024/01/22 04:14:06;;;;;;;;;;;;;;;8.58;100.00;100144.16;5116355;28;19920;-74
2024/01/22 04:16:31;;;;;;;;;;;;;;;8.60;100.00;100151.03;5116773;28;19965;-73
2024/01/22 04:18:56;;;;;;;;;;;;;;;8.60;100.00;100137.97;5115584;28;19990;-73
2024/01/22 04:21:22;;;;;;;;;;;;;;;8.62;100.00;100124.84;5116274;28;20120;-74
2024/01/22 04:23:47;;;;;;;;;;;;;;;8.63;100.00;100111.72;5115883;28;19928;-73
2024/01/22 04:26:12;;;;;;;;;;;;;;;8.63;100.00;100137.81;5116123;28;19926;-73
2024/01/22 04:28:37;;;;;;;;;;;;;;;8.65;100.00;100128.16;5098026;28;19983;-73
2024/01/22 04:31:03;;;;;;;;;;;;;;;8.66;100.00;100149.91;5104412;28;19919;-73
2024/01/22 04:33:28;;;;;;;;;;;;;;;8.66;100.00;100142.09;5108248;28;19924;-74
2024/01/22 04:35:53;;;;;;;;;;;;;;;8.64;100.00;100154.31;5116211;28;19958;-74
2024/01/22 04:38:18;;;;;;;;;;;;;;;8.63;100.00;100157.88;5116199;28;20104;-73
2024/01/22 04:40:44;;;;;;;;;;;;;;;8.64;100.00;100164.75;5116481;28;20081;-74
2024/01/22 04:43:09;;;;;;;;;;;;;;;8.67;100.00;100169.03;5115904;28;20088;-74
2024/01/22 04:45:34;;;;;;;;;;;;;;;8.71;100.00;100181.03;5116756;28;19953;-74
2024/01/22 04:47:59;;;;;;;;;;;;;;;8.69;100.00;100195.91;5097315;28;19930;-73
2024/01/22 04:50:25;;;;;;;;;;;;;;;8.71;100.00;100179.25;5116046;28;19919;-74
2024/01/22 04:52:50;;;;;;;;;;;;;;;8.71;100.00;100181.03;5115249;28;20230;-73
2024/01/22 04:55:15;;;;;;;;;;;;;;;8.73;100.00;100168.75;5115428;28;19920;-74
2024/01/22 04:57:40;;;;;;;;;;;;;;;8.71;100.00;100173.19;5115680;28;19920;-74
2024/01/22 05:00:06;;;;;;;;;;;;;;;8.69;100.00;100185.47;5115761;28;19920;-74
2024/01/22 05:02:32;;;;;;;;;;;;;;;8.68;100.00;100171.56;5115610;28;20056;-74
2024/01/22 05:04:58;;;;;;;;;;;;;;;8.67;100.00;100174.25;5112637;28;19931;-74
2024/01/22 05:07:24;;;;;;;;;;;;;;;8.63;100.00;100183.97;5111550;28;20242;-73
2024/01/22 05:09:49;;;;;;;;;;;;;;;8.63;100.00;100176.97;5115576;28;20127;-73
2024/01/22 05:12:14;;;;;;;;;;;;;;;8.64;100.00;100189.13;5113708;28;19911;-73
2024/01/22 05:14:40;;;;;;;;;;;;;;;8.67;100.00;100206.41;5115801;28;19920;-74
2024/01/22 05:17:06;;;;;;;;;;;;;;;8.68;100.00;100191.59;5115390;28;19919;-74
2024/01/22 05:19:32;;;;;;;;;;;;;;;8.68;100.00;100186.38;5097017;28;20343;-74
2024/01/22 05:21:57;;;;;;;;;;;;;;;8.74;100.00;100175.69;5114877;28;20002;-73
2024/01/22 05:24:22;;;;;;;;;;;;;;;8.77;100.00;100192.06;5114830;28;19930;-73
2024/01/22 05:26:47;;;;;;;;;;;;;;;8.78;100.00;100185.91;5115290;28;19927;-73
2024/01/22 05:29:13;;;;;;;;;;;;;;;8.81;100.00;100201.44;5114865;28;20068;-74
2024/01/22 05:31:38;;;;;;;;;;;;;;;8.82;100.00;100184.00;5115568;28;20119;-74
2024/01/22 05:34:03;;;;;;;;;;;;;;;8.82;100.00;100199.66;5114166;28;20222;-74
2024/01/22 05:36:28;;;;;;;;;;;;;;;8.84;100.00;100209.16;5115223;28;20115;-73
2024/01/22 05:38:53;;;;;;;;;;;;;;;8.87;100.00;100209.94;5114327;28;20137;-73
2024/01/22 05:41:19;;;;;;;;;;;;;;;8.93;100.00;100205.28;5115318;28;19930;-73
2024/01/22 05:43:44;;;;;;;;;;;;;;;8.97;100.00;100214.69;5115197;28;20253;-73
2024/01/22 05:46:09;;;;;;;;;;;;;;;9.05;100.00;100218.72;5114355;28;19945;-73
2024/01/22 05:48:35;;;;;;;;;;;;;;;9.04;100.00;100238.78;5115923;28;19915;-73
2024/01/22 05:51:01;;;;;;;;;;;;;;;9.04;100.00;100223.09;5114050;28;19968;-73
2024/01/22 05:53:26;;;;;;;;;;;;;;;9.11;100.00;100236.72;5096699;28;19919;-73
2024/01/22 05:55:51;;;;;;;;;;;;;;;9.15;100.00;100213.03;5114412;28;19912;-74
2024/01/22 05:58:17;;;;;;;;;;;;;;;9.14;100.00;100208.69;5114681;28;19916;-73
2024/01/22 06:00:42;;;;;;;;;;;;;;;9.32;100.00;100220.09;5113807;28;19927;-73
2024/01/22 06:03:07;;;;;;;;;;;;;;;9.37;100.00;100225.97;5114705;28;19923;-73
2024/01/22 06:05:33;;;;;;;;;;;;;;;9.43;100.00;100227.44;5114661;28;19923;-73
2024/01/22 06:07:58;;;;;;;;;;;;;;;9.50;100.00;100226.25;5113131;28;19919;-74
2024/01/22 06:10:23;;;;;;;;;;;;;;;9.48;100.00;100232.44;5113550;28;19927;-73
2024/01/22 06:12:49;;;;;;;;;;;;;;;9.51;100.00;100216.63;5112387;28;20020;-73
2024/01/22 06:15:14;;;;;;;;;;;;;;;9.64;100.00;100227.38;5113291;28;19920;-74
2024/01/22 06:17:39;;;;;;;;;;;;;;;9.72;100.00;100238.34;5114358;28;19920;-73
2024/01/22 06:20:05;;;;;;;;;;;;;;;9.73;100.00;100227.81;5113515;28;19941;-74
2024/01/22 06:22:30;;;;;;;;;;;;;;;9.71;100.00;100237.47;5113846;28;20142;-73
2024/01/22 06:24:55;;;;;;;;;;;;;;;9.71;100.00;100218.31;5113521;28;19924;-73
2024/01/22 06:27:21;;;;;;;;;;;;;;;9.72;100.00;100247.03;5113637;28;19926;-73
2024/01/22 06:29:47;;;;;;;;;;;;;;;9.77;100.00;100242.44;5113245;28;19958;-73
2024/01/22 06:32:12;;;;;;;;;;;;;;;9.79;100.00;100252.81;5113006;28;19912;-73
2024/01/22 06:34:37;;;;;;;;;;;;;;;9.89;100.00;100268.91;5113929;28;19920;-74
2024/01/22 06:37:03;;;;;;;;;;;;;;;9.95;100.00;100276.47;5113708;28;19943;-74
2024/01/22 06:39:28;;;;;;;;;;;;;;;9.93;100.00;100232.09;5113508;28;19919;-74
2024/01/22 06:41:53;;;;;;;;;;;;;;;9.98;100.00;100244.94;5112913;28;19919;-74
2024/01/22 06:44:18;;;;;;;;;;;;;;;9.96;100.00;100249.41;5113416;28;19924;-74
2024/01/22 06:46:44;;;;;;;;;;;;;;;9.99;100.00;100254.50;5095903;28;19927;-74
2024/01/22 06:49:09;;;;;;;;;;;;;;;9.98;100.00;100250.16;5103004;28;20085;-74
2024/01/22 06:51:34;;;;;;;;;;;;;;;9.91;100.00;100262.69;5102616;28;19938;-73
2024/01/22 06:53:59;;;;;;;;;;;;;;;9.87;100.00;100268.16;5112832;28;19920;-74
2024/01/22 06:56:24;;;;;;;;;;;;;;;9.88;100.00;100275.09;5098292;28;19930;-74
2024/01/22 06:58:50;;;;;;;;;;;;;;;9.86;100.00;100250.75;5110719;28;19915;-74
2024/01/22 07:01:15;;;;;;;;;;;;;;;9.91;100.00;100285.38;5106055;28;19926;-74
2024/01/22 07:03:40;;;;;;;;;;;;;;;9.95;100.00;100252.91;5112440;28;20025;-73
2024/01/22 07:06:05;;;;;;;;;;;;;;;9.91;100.00;100273.16;5106565;28;19930;-74
2024/01/22 07:08:31;;;;;;;;;;;;;;;9.90;100.00;100273.25;5110654;28;19947;-74
2024/01/22 07:10:57;;;;;;;;;;;;;;;9.95;100.00;100294.78;5104538;28;20202;-74
2024/01/22 07:13:23;;;;;;;;;;;;;;;9.90;100.00;100262.78;5085380;28;19947;-73
2024/01/22 07:15:48;;;;;;;;;;;;;;;9.87;100.00;100296.91;5103889;28;19927;-73
2024/01/22 07:18:13;;;;;;;;;;;;;;;9.84;100.00;100269.16;5111831;28;19924;-73
2024/01/22 07:20:38;;;;;;;;;;;;;;;9.83;100.00;100284.91;5112225;28;20302;-74
2024/01/22 07:23:04;;;;;;;;;;;;;;;9.84;100.00;100287.47;5109127;28;19927;-73
2024/01/22 07:25:34;;;;;;;;;;;;;;;9.83;100.00;100285.75;5111758;28;19938;-73
2024/01/22 07:27:59;;;;;;;;;;;;;;;9.92;100.00;100274.84;5107480;28;19924;-73
2024/01/22 07:30:24;;;;;;;;;;;;;;;9.96;100.00;100312.19;5110107;28;19959;-74
2024/01/22 07:32:49;;;;;;;;;;;;;;;9.96;100.00;100276.41;5111092;28;19920;-74
2024/01/22 07:35:15;;;;;;;;;;;;;;;9.93;100.00;100291.38;5111911;28;19920;-74
2024/01/22 07:37:42;;;;;;;;;;;;;;;9.87;100.00;100300.38;5111510;28;19947;-74
2024/01/22 07:40:09;;;;;;;;;;;;;;;9.76;100.00;100287.78;5110451;28;19919;-74
2024/01/22 07:42:35;;;;;;;;;;;;;;;9.72;100.00;100309.78;5111952;28;19912;-74
2024/01/22 07:45:01;;;;;;;;;;;;;;;9.65;100.00;100305.75;5111406;28;20328;-74
2024/01/22 07:47:27;;;;;;;;;;;;;;;9.63;100.00;100317.19;5110846;28;20174;-74
2024/01/22 07:49:52;;;;;;;;;;;;;;;9.56;100.00;100320.06;5111693;28;19923;-74
2024/01/22 07:52:17;;;;;;;;;;;;;;;9.54;100.00;100344.59;5111927;28;19947;-74
2024/01/22 07:54:42;;;;;;;;;;;;;;;9.51;100.00;100342.94;5111724;28;20254;-74
2024/01/22 07:57:10;;;;;;;;;;;;;;;9.50;100.00;100314.28;5111239;28;19927;-74
2024/01/22 07:59:37;;;;;;;;;;;;;;;9.46;100.00;100346.69;5112479;28;19908;-74
2024/01/22 08:02:04;;;;;;;;;;;;;;;9.44;100.00;100362.47;5110659;28;19981;-74
2024/01/22 08:04:29;;;;;;;;;;;;;;;9.41;100.00;100362.59;5111637;28;20126;-74
2024/01/22 08:06:54;;;;;;;;;;;;;;;9.39;100.00;100370.47;5111673;28;19947;-74
2024/01/22 08:09:20;;;;;;;;;;;;;;;9.35;100.00;100400.28;5109379;28;20260;-74
2024/01/22 08:11:47;;;;;;;;;;;;;;;9.36;100.00;100394.13;5112564;28;19930;-74
2024/01/22 08:14:12;;;;;;;;;;;;;;;9.36;100.00;100378.44;5112377;28;19983;-74
2024/01/22 08:16:38;;;;;;;;;;;;;;;9.35;100.00;100362.81;5113224;28;19953;-74
2024/01/22 08:19:04;;;;;;;;;;;;;;;9.30;100.00;100352.59;5112304;28;19954;-74
2024/01/22 08:21:29;;;;;;;;;;;;;;;9.27;100.00;100386.69;5112046;28;19930;-74
2024/01/22 08:23:54;;;;;;;;;;;;;;;9.22;100.00;100376.44;5107817;28;20168;-74
2024/01/22 08:26:19;;;;;;;;;;;;;;;9.18;100.00;100381.84;5111298;28;19920;-74
2024/01/22 08:28:45;;;;;;;;;;;;;;;9.15;100.00;100382.84;5111250;28;19985;-74
2024/01/22 08:31:10;;;;;;;;;;;;;;;9.10;100.00;100430.97;5112820;28;19984;-74
2024/01/22 08:33:35;;;;;;;;;;;;;;;9.04;100.00;100411.19;5116251;28;19950;-74
2024/01/22 08:36:00;;;;;;;;;;;;;;;8.99;100.00;100434.84;5112476;28;19992;-74
2024/01/22 08:38:26;;;;;;;;;;;;;;;8.96;100.00;100405.41;5107698;28;19912;-74
2024/01/22 08:40:51;;;;;;;;;;;;;;;8.93;100.00;100409.00;5110360;28;19911;-74
2024/01/22 08:43:16;;;;;;;;;;;;;;;8.90;100.00;100424.78;5098249;27;19931;-73
2024/01/22 08:45:42;;;;;;;;;;;;;;;8.87;100.00;100448.41;5108657;28;20359;-73
2024/01/22 08:48:07;;;;;;;;;;;;;;;8.87;100.00;100440.56;5109514;28;19920;-73
2024/01/22 08:50:32;;;;;;;;;;;;;;;8.84;100.00;100454.59;5109769;28;19947;-74
2024/01/22 08:52:57;;;;;;;;;;;;;;;8.83;100.00;100444.22;5096835;28;19996;-73
2024/01/22 08:55:23;;;;;;;;;;;;;;;8.79;100.00;100445.25;5097616;28;19924;-73
2024/01/22 08:57:48;;;;;;;;;;;;;;;8.75;100.00;100441.03;5098310;28;19916;-73
2024/01/22 09:00:14;;;;;;;;;;;;;;;8.72;100.00;100446.41;5098595;28;19920;-73
2024/01/22 09:02:41;;;;;;;;;;;;;;;8.69;100.00;100449.97;5098755;28;19927;-73
2024/01/22 09:05:10;;;;;;;;;;;;;;;8.64;100.00;100472.78;5098693;28;20116;-73
2024/01/22 09:07:35;;;;;;;;;;;;;;;8.61;100.00;100486.81;5099523;28;20222;-73
2024/01/22 09:10:03;;;;;;;;;;;;;;;8.56;100.00;100488.75;5107913;28;19924;-74
2024/01/22 09:12:28;;;;;;;;;;;;;;;8.55;100.00;100491.41;5106473;28;19920;-73
2024/01/22 09:14:53;;;;;;;;;;;;;;;8.49;100.00;100502.94;5096457;28;19950;-74
2024/01/22 09:17:18;;;;;;;;;;;;;;;8.47;100.00;100511.75;5097745;28;19987;-74
2024/01/22 09:19:44;;;;;;;;;;;;;;;8.41;100.00;100511.03;5100160;28;20208;-73
2024/01/22 09:22:09;;;;;;;;;;;;;;;8.40;100.00;100521.50;5088825;28;20250;-73
2024/01/22 09:24:34;;;;;;;;;;;;;;;8.36;100.00;100523.38;5092909;28;19924;-73
2024/01/22 09:26:59;;;;;;;;;;;;;;;8.35;100.00;100515.59;5096942;28;19919;-73
2024/01/22 09:29:25;;;;;;;;;;;;;;;8.34;100.00;100529.56;5098242;28;19947;-73
2024/01/22 09:31:51;;;;;;;;;;;;;;;8.31;100.00;100525.31;5089036;28;20239;-73
2024/01/22 09:34:16;;;;;;;;;;;;;;;8.27;100.00;100524.56;5106894;28;19920;-73
2024/01/22 09:36:41;;;;;;;;;;;;;;;8.27;100.00;100519.34;5101884;28;19946;-73
2024/01/22 09:39:07;;;;;;;;;;;;;;;8.26;100.00;100527.25;5110081;28;19923;-73
2024/01/22 09:41:32;;;;;;;;;;;;;;;8.29;100.00;100527.13;5101923;28;19986;-73
2024/01/22 09:43:58;;;;;;;;;;;;;;;8.25;100.00;100555.06;5110348;28;19959;-73
2024/01/22 09:46:24;;;;;;;;;;;;;;;8.26;100.00;100546.38;5107410;28;20134;-73
2024/01/22 09:48:50;;;;;;;;;;;;;;;8.27;100.00;100542.81;5106572;28;19924;-73
2024/01/22 09:51:16;;;;;;;;;;;;;;;8.25;100.00;100568.13;5098393;28;20114;-73
2024/01/22 09:53:45;;;;;;;;;;;;;;;8.25;100.00;100562.06;5093878;28;19923;-73
2024/01/22 09:56:11;;;;;;;;;;;;;;;8.22;100.00;100564.78;5108054;28;20466;-73
2024/01/22 09:58:41;;;;;;;;;;;;;;;8.21;100.00;100561.31;5108690;28;20131;-73
2024/01/22 10:01:08;;;;;;;;;;;;;;;8.21;100.00;100574.38;5101946;28;19927;-73
2024/01/22 10:03:33;;;;;;;;;;;;;;;8.23;100.00;100579.53;5100137;28;19919;-73
2024/01/22 10:05:59;;;;;;;;;;;;;;;8.26;100.00;100584.66;5107450;28;19953;-73
2024/01/22 10:08:24;;;;;;;;;;;;;;;8.21;100.00;100590.00;5108982;28;19951;-73
2024/01/22 10:10:49;;;;;;;;;;;;;;;8.26;100.00;100597.69;5108428;28;19951;-73
2024/01/22 10:13:15;;;;;;;;;;;;;;;8.24;100.00;100600.34;5108975;28;20196;-73
2024/01/22 10:15:40;;;;;;;;;;;;;;;8.26;100.00;100603.75;5109101;28;19962;-73
2024/01/22 10:18:18;;;;;;;;;;;;;;;8.28;100.00;100603.72;5099175;28;20127;-73
2024/01/22 10:20:44;;;;;;;;;;;;;;;8.29;100.00;100610.63;5096696;28;19962;-73
2024/01/22 10:23:13;;;;;;;;;;;;;;;8.31;100.00;100606.19;5105464;28;19975;-73
2024/01/22 10:25:38;;;;;;;;;;;;;;;8.33;100.00;100620.06;5109395;28;19915;-73
2024/01/22 10:28:06;;;;;;;;;;;;;;;8.37;100.00;100629.47;5102515;28;19930;-73
2024/01/22 10:30:31;;;;;;;;;;;;;;;8.38;100.00;100646.81;5099876;28;19930;-73
2024/01/22 10:33:10;;;;;;;;;;;;;;;8.39;100.00;100645.09;5098201;28;19927;-73
2024/01/22 10:35:35;;;;;;;;;;;;;;;8.41;100.00;100645.88;5098892;28;19916;-73
2024/01/22 10:38:07;;;;;;;;;;;;;;;8.41;100.00;100656.31;5107041;28;20217;-73
2024/01/22 10:40:33;;;;;;;;;;;;;;;8.45;100.00;100663.16;5103256;28;19955;-73
2024/01/22 10:42:58;;;;;;;;;;;;;;;8.44;100.00;100659.72;5103066;28;19965;-73
2024/01/22 10:45:25;;;;;;;;;;;;;;;8.44;100.00;100666.66;5106533;28;19928;-73
2024/01/22 10:47:51;;;;;;;;;;;;;;;8.46;100.00;100672.72;5108217;28;20368;-73
2024/01/22 10:50:17;;;;;;;;;;;;;;;8.44;100.00;100656.22;5107399;28;19931;-73
2024/01/22 10:52:42;;;;;;;;;;;;;;;8.47;100.00;100663.13;5096859;28;19985;-73
2024/01/22 10:55:07;;;;;;;;;;;;;;;8.50;100.00;100670.84;5093891;28;20303;-73
2024/01/22 10:57:39;;;;;;;;;;;;;;;8.51;100.00;100676.00;5097756;28;20384;-73
2024/01/22 11:00:07;;;;;;;;;;;;;;;8.53;100.00;100673.34;5099142;28;19968;-73
2024/01/22 11:02:34;;;;;;;;;;;;;;;8.56;100.00;100692.34;5098592;28;20100;-73
2024/01/22 11:05:12;;;;;;;;;;;;;;;8.57;100.00;100686.25;5096937;28;19924;-73
2024/01/22 11:07:39;;;;;;;;;;;;;;;8.55;100.00;100714.16;5097551;28;20174;-73
2024/01/22 11:10:05;;;;;;;;;;;;;;;8.56;100.00;100709.78;5097846;28;19915;-73
2024/01/22 11:12:33;;;;;;;;;;;;;;;8.56;100.00;100704.56;5096410;28;19966;-74
2024/01/22 11:14:59;;;;;;;;;;;;;;;8.56;100.00;100728.88;5096919;28;19919;-73
2024/01/22 11:17:25;;;;;;;;;;;;;;;8.54;100.00;100715.03;5096582;28;20030;-73
2024/01/22 11:19:50;;;;;;;;;;;;;;;8.53;100.00;100712.47;5094400;28;19958;-73
2024/01/22 11:22:23;;;;;;;;;;;;;;;8.53;100.00;100725.53;5098183;28;20136;-73
2024/01/22 11:25:01;;;;;;;;;;;;;;;8.53;100.00;100730.75;5098955;28;20342;-73
2024/01/22 11:27:47;;;;;;;;;;;;;;;8.51;100.00;100722.97;5097002;28;19920;-73
2024/01/22 11:30:21;;;;;;;;;;;;;;;8.52;100.00;100729.91;5096547;28;19920;-73
2024/01/22 11:32:46;;;;;;;;;;;;;;;8.55;100.00;100714.16;5100176;28;20161;-74
2024/01/22 11:35:11;;;;;;;;;;;;;;;8.54;100.00;100735.94;5098084;28;19927;-73
2024/01/22 11:37:37;;;;;;;;;;;;;;;8.55;100.00;100742.00;5099756;28;20164;-73
2024/01/22 11:40:11;;;;;;;;;;;;;;;8.56;100.00;100741.09;5096016;28;19923;-73
2024/01/22 11:42:36;;;;;;;;;;;;;;;8.55;100.00;100740.25;5079792;28;19919;-73
2024/01/22 11:45:14;;;;;;;;;;;;;;;8.55;100.00;100757.66;5097147;28;19930;-73
2024/01/22 11:47:41;;;;;;;;;;;;;;;8.56;100.00;100741.94;5103075;28;19927;-73
2024/01/22 11:50:07;;;;;;;;;;;;;;;8.60;100.00;100761.84;5093244;28;19924;-73
2024/01/22 11:52:34;;;;;;;;;;;;;;;8.62;100.00;100744.38;5094575;28;19923;-73
2024/01/22 11:55:00;;;;;;;;;;;;;;;8.63;100.00;100747.81;5091779;28;19950;-73
2024/01/22 11:57:26;;;;;;;;;;;;;;;8.63;100.00;100742.59;5093339;28;20001;-73
2024/01/22 12:00:04;;;;;;;;;;;;;;;8.64;100.00;100745.16;5100648;28;19971;-73
2024/01/22 12:02:29;;;;;;;;;;;;;;;8.65;100.00;100749.47;5106959;28;19927;-74
2024/01/22 12:05:01;;;;;;;;;;;;;;;8.68;100.00;100748.53;5101676;28;19989;-74
2024/01/22 12:07:32;;;;;;;;;;;;;;;8.68;100.00;100748.53;5098892;28;19926;-73
2024/01/22 12:09:58;;;;;;;;;;;;;;;8.67;100.00;100751.19;5098302;28;19926;-73
2024/01/22 12:12:23;;;;;;;;;;;;;;;8.67;100.00;100752.03;5111601;28;20249;-74
2024/01/22 12:14:55;;;;;;;;;;;;;;;8.65;100.00;100777.34;5109440;28;19986;-73
2024/01/22 12:17:21;;;;;;;;;;;;;;;8.64;100.00;100758.22;5112046;28;20225;-74
2024/01/22 12:19:48;;;;;;;;;;;;;;;8.64;100.00;100768.66;5111994;28;19955;-74
2024/01/22 12:22:13;;;;;;;;;;;;;;;8.63;100.00;100768.72;5111229;28;20253;-74
2024/01/22 12:24:39;;;;;;;;;;;;;;;8.64;100.00;100796.50;5112141;28;19919;-73
2024/01/22 12:27:04;;;;;;;;;;;;;;;8.64;100.00;100778.22;5106413;28;20196;-73
2024/01/22 12:29:29;;;;;;;;;;;;;;;8.63;100.00;100795.66;5100585;28;20201;-73